createdAt,value
2018-05-15T00:00:45.737Z,34.60
2018-05-15T00:03:13.820Z,34.85
2018-05-15T00:05:42.007Z,36.25
2018-05-15T00:08:11.115Z,34.28
2018-05-15T00:10:39.194Z,36.55
2018-05-15T00:13:07.280Z,35.53
2018-05-15T00:15:35.764Z,38.55
2018-05-15T00:18:15.532Z,35.58
2018-05-15T00:20:43.631Z,33.50
2018-05-15T00:23:11.728Z,37.95
2018-05-15T00:25:39.832Z,33.67
2018-05-15T00:28:08.049Z,33.65
2018-05-15T00:30:36.055Z,36.92
2018-05-15T00:33:04.149Z,36.78
2018-05-15T00:35:33.023Z,34.97
2018-05-15T00:38:05.794Z,33.50
2018-05-15T00:40:35.042Z,34.03
2018-05-15T00:43:04.183Z,35.45
2018-05-15T00:45:32.316Z,36.00
2018-05-15T00:48:00.502Z,37.58
2018-05-15T00:50:28.598Z,35.53
2018-05-15T00:52:56.692Z,34.40
2018-05-15T00:55:36.542Z,38.35
2018-05-15T00:58:04.681Z,32.65
2018-05-15T01:00:32.791Z,31.45
2018-05-15T01:03:01.271Z,32.90
2018-05-15T01:05:29.364Z,33.67
2018-05-15T01:07:57.603Z,33.53
2018-05-15T01:10:25.734Z,36.08
2018-05-15T01:12:53.851Z,34.33
2018-05-15T01:15:21.947Z,37.97
2018-05-15T01:17:50.066Z,37.47
2018-05-15T01:20:18.179Z,35.30
2018-05-15T01:22:46.268Z,38.28
2018-05-15T01:25:15.145Z,41.30
2018-05-15T01:27:47.287Z,38.92
2018-05-15T01:30:15.381Z,40.47
2018-05-15T01:32:43.503Z,41.13
2018-05-15T01:35:11.609Z,39.00
2018-05-15T01:37:39.697Z,39.17
2018-05-15T01:40:07.787Z,43.00
2018-05-15T01:42:36.639Z,42.95
2018-05-15T01:45:04.785Z,40.22
2018-05-15T01:47:33.428Z,40.17
2018-05-15T01:50:02.314Z,40.38
2018-05-15T01:52:30.807Z,38.92
2018-05-15T01:55:00.245Z,38.22
2018-05-15T01:57:29.385Z,36.58
2018-05-15T01:59:57.873Z,38.53
2018-05-15T02:02:26.404Z,38.97
2018-05-15T02:04:54.493Z,34.88
2018-05-15T02:07:22.639Z,35.95
2018-05-15T02:09:51.261Z,36.67
2018-05-15T02:12:19.408Z,35.58
2018-05-15T02:14:47.442Z,34.38
2018-05-15T02:17:15.918Z,34.13
2018-05-15T02:19:44.003Z,34.55
2018-05-15T02:22:12.100Z,34.17
2018-05-15T02:24:40.201Z,37.72
2018-05-15T02:27:08.290Z,37.90
2018-05-15T02:29:37.464Z,35.45
2018-05-15T02:32:05.581Z,34.47
2018-05-15T02:34:33.676Z,32.28
2018-05-15T02:37:01.769Z,36.10
2018-05-15T02:39:33.447Z,34.22
2018-05-15T02:42:12.836Z,34.50
2018-05-15T02:44:40.942Z,29.73
2018-05-15T02:47:10.468Z,33.03
2018-05-15T02:49:38.649Z,30.80
2018-05-15T02:52:06.738Z,32.70
2018-05-15T02:54:34.829Z,33.85
2018-05-15T02:57:02.931Z,31.52
2018-05-15T02:59:31.132Z,33.17
2018-05-15T03:01:59.227Z,32.85
2018-05-15T03:04:27.334Z,38.15
2018-05-15T03:06:55.453Z,31.90
2018-05-15T03:09:23.607Z,35.63
2018-05-15T03:11:52.458Z,38.35
2018-05-15T03:14:21.318Z,34.65
2018-05-15T03:16:49.481Z,34.78
2018-05-15T03:19:19.590Z,34.15
2018-05-15T03:21:47.683Z,35.83
2018-05-15T03:24:15.787Z,36.28
2018-05-15T03:26:43.915Z,34.80
2018-05-15T03:29:12.077Z,34.53
2018-05-15T03:31:40.933Z,35.25
2018-05-15T03:34:09.040Z,32.63
2018-05-15T03:36:37.528Z,31.37
2018-05-15T03:39:05.639Z,33.85
2018-05-15T03:41:34.515Z,33.30
2018-05-15T03:44:02.613Z,32.50
2018-05-15T03:46:31.474Z,28.40
2018-05-15T03:48:59.603Z,30.40
2018-05-15T03:51:27.720Z,29.15
2018-05-15T03:53:55.806Z,32.08
2018-05-15T03:56:23.895Z,30.67
2018-05-15T03:58:52.129Z,30.52
2018-05-15T04:01:32.095Z,31.77
2018-05-15T04:04:12.032Z,31.30
2018-05-15T04:06:51.987Z,31.67
2018-05-15T04:09:20.080Z,32.33
2018-05-15T04:11:48.235Z,31.80
2018-05-15T04:14:17.193Z,29.77
2018-05-15T04:16:45.322Z,31.95
2018-05-15T04:19:13.418Z,30.55
2018-05-15T04:21:41.552Z,32.00
2018-05-15T04:24:09.630Z,32.90
2018-05-15T04:26:37.723Z,30.45
2018-05-15T04:29:05.874Z,32.33
2018-05-15T04:31:34.031Z,34.13
2018-05-15T04:34:02.116Z,32.20
2018-05-15T04:36:30.261Z,30.70
2018-05-15T04:38:58.355Z,30.10
2018-05-15T04:41:26.439Z,34.70
2018-05-15T04:43:54.533Z,33.58
2018-05-15T04:46:22.627Z,32.28
2018-05-15T04:48:51.899Z,35.00
2018-05-15T04:51:21.316Z,33.13
2018-05-15T04:53:50.668Z,32.45
2018-05-15T04:56:18.665Z,33.25
2018-05-15T04:58:47.633Z,31.95
2018-05-15T05:01:15.710Z,31.15
2018-05-15T05:03:43.826Z,34.22
2018-05-15T05:06:11.896Z,32.03
2018-05-15T05:08:40.142Z,33.35
2018-05-15T05:11:08.227Z,34.53
2018-05-15T05:13:37.089Z,33.42
2018-05-15T05:16:05.169Z,34.65
2018-05-15T05:18:33.655Z,32.75
2018-05-15T05:21:02.539Z,31.33
2018-05-15T05:23:30.608Z,29.27
2018-05-15T05:25:58.704Z,30.52
2018-05-15T05:28:27.560Z,29.40
2018-05-15T05:30:55.661Z,31.10
2018-05-15T05:33:23.817Z,30.25
2018-05-15T05:35:51.875Z,29.75
2018-05-15T05:38:20.132Z,29.63
2018-05-15T05:40:48.233Z,26.50
2018-05-15T05:43:16.323Z,29.67
2018-05-15T05:45:44.440Z,28.15
2018-05-15T05:48:32.856Z,29.15
2018-05-15T05:51:06.634Z,29.67
2018-05-15T05:53:34.734Z,31.00
2018-05-15T05:56:03.589Z,29.17
2018-05-15T05:58:32.690Z,29.25
2018-05-15T06:01:00.780Z,29.95
2018-05-15T06:03:28.873Z,30.77
2018-05-15T06:05:56.973Z,30.42
2018-05-15T06:08:25.168Z,30.30
2018-05-15T06:10:53.270Z,29.12
2018-05-15T06:13:21.358Z,29.45
2018-05-15T06:15:49.446Z,27.70
2018-05-15T06:18:18.507Z,28.50
2018-05-15T06:20:46.719Z,30.15
2018-05-15T06:23:14.729Z,29.52
2018-05-15T06:25:42.830Z,28.77
2018-05-15T06:28:10.975Z,30.62
2018-05-15T06:30:39.062Z,27.77
2018-05-15T06:33:07.163Z,27.23
2018-05-15T06:35:36.040Z,28.15
2018-05-15T06:38:06.144Z,26.98
2018-05-15T06:40:34.304Z,29.65
2018-05-15T06:43:02.395Z,28.00
2018-05-15T06:45:30.515Z,27.75
2018-05-15T06:48:00.691Z,28.92
2018-05-15T06:50:28.796Z,28.92
2018-05-15T06:52:56.930Z,27.87
2018-05-15T06:55:25.076Z,28.20
2018-05-15T06:57:55.404Z,27.60
2018-05-15T07:00:23.495Z,28.15
2018-05-15T07:02:51.600Z,30.42
2018-05-15T07:05:19.926Z,27.60
2018-05-15T07:07:49.874Z,29.73
2018-05-15T07:10:17.834Z,26.92
2018-05-15T07:12:47.004Z,28.75
2018-05-15T07:15:15.111Z,27.67
2018-05-15T07:17:43.482Z,27.42
2018-05-15T07:20:11.602Z,29.42
2018-05-15T07:22:39.714Z,31.30
2018-05-15T07:25:07.831Z,33.58
2018-05-15T07:27:36.707Z,28.48
2018-05-15T07:30:04.807Z,30.27
2018-05-15T07:32:32.921Z,30.37
2018-05-15T07:35:01.027Z,32.25
2018-05-15T07:37:29.133Z,33.03
2018-05-15T07:39:57.227Z,32.08
2018-05-15T07:42:25.331Z,30.27
2018-05-15T07:44:54.354Z,29.12
2018-05-15T07:47:22.476Z,27.20
2018-05-15T07:49:50.573Z,29.50
2018-05-15T07:52:18.667Z,29.10
2018-05-15T07:54:47.525Z,29.48
2018-05-15T07:57:15.610Z,29.02
2018-05-15T07:59:43.745Z,26.90
2018-05-15T08:02:12.638Z,28.25
2018-05-15T08:04:40.649Z,29.75
2018-05-15T08:07:08.743Z,27.98
2018-05-15T08:09:38.111Z,28.85
2018-05-15T08:12:06.195Z,24.23
2018-05-15T08:14:34.689Z,27.13
2018-05-15T08:17:02.810Z,28.52
2018-05-15T08:19:31.001Z,25.35
2018-05-15T08:21:59.348Z,25.37
2018-05-15T08:24:28.444Z,32.33
2018-05-15T08:26:56.563Z,22.05
2018-05-15T08:29:24.724Z,28.25
2018-05-15T08:31:53.729Z,24.55
2018-05-15T08:34:21.831Z,23.30
2018-05-15T08:36:50.679Z,21.23
2018-05-15T08:39:18.844Z,21.67
2018-05-15T08:41:47.556Z,22.70
2018-05-15T08:44:15.654Z,19.02
2018-05-15T08:46:44.886Z,21.95
2018-05-15T08:49:13.476Z,20.95
2018-05-15T08:51:41.590Z,19.33
2018-05-15T08:54:09.678Z,17.62
2018-05-15T08:56:39.336Z,19.37
2018-05-15T08:59:08.139Z,18.23
2018-05-15T09:01:36.225Z,17.70
2018-05-15T09:04:04.317Z,16.85
2018-05-15T09:06:32.407Z,16.73
2018-05-15T09:09:01.267Z,16.77
2018-05-15T09:11:29.383Z,18.70
2018-05-15T09:13:57.475Z,17.73
2018-05-15T09:16:25.717Z,18.87
2018-05-15T09:18:53.743Z,15.27
2018-05-15T09:21:21.830Z,16.12
2018-05-15T09:23:50.567Z,17.20
2018-05-15T09:26:20.107Z,16.58
2018-05-15T09:28:48.250Z,16.65
2018-05-15T09:31:16.943Z,17.45
2018-05-15T09:33:45.052Z,17.17
2018-05-15T09:36:14.653Z,16.05
2018-05-15T09:38:42.834Z,18.95
2018-05-15T09:41:10.947Z,17.92
2018-05-15T09:43:54.688Z,21.77
2018-05-15T09:46:22.867Z,15.95
2018-05-15T09:48:51.067Z,17.30
2018-05-15T09:51:19.174Z,17.17
2018-05-15T09:53:48.044Z,16.95
2018-05-15T09:56:16.140Z,16.67
2018-05-15T09:58:44.387Z,15.90
2018-05-15T10:01:12.475Z,17.05
2018-05-15T10:03:40.579Z,15.35
2018-05-15T10:06:08.704Z,15.50
2018-05-15T10:08:36.859Z,16.45
2018-05-15T10:11:04.973Z,14.82
2018-05-15T10:13:33.093Z,14.60
2018-05-15T10:16:01.193Z,14.70
2018-05-15T10:18:29.757Z,15.07
2018-05-15T10:20:57.844Z,16.00
2018-05-15T10:23:25.957Z,14.77
2018-05-15T10:25:54.054Z,15.77
2018-05-15T10:28:22.262Z,15.25
2018-05-15T10:30:50.377Z,13.20
2018-05-15T10:33:18.467Z,13.20
2018-05-15T10:35:46.575Z,13.98
2018-05-15T10:38:14.769Z,12.63
2018-05-15T10:40:42.884Z,14.25
2018-05-15T10:43:10.992Z,13.15
2018-05-15T10:45:39.087Z,15.52
2018-05-15T10:48:07.219Z,13.15
2018-05-15T10:50:35.314Z,13.77
2018-05-15T10:53:03.469Z,12.70
2018-05-15T10:55:31.587Z,11.15
2018-05-15T10:58:00.436Z,12.73
2018-05-15T11:00:29.425Z,12.23
2018-05-15T11:02:58.463Z,11.68
2018-05-15T11:05:26.547Z,11.77
2018-05-15T11:07:55.708Z,11.68
2018-05-15T11:10:23.813Z,11.95
2018-05-15T11:12:53.935Z,10.73
2018-05-15T11:15:22.482Z,12.25
2018-05-15T11:17:50.666Z,11.85
2018-05-15T11:20:30.863Z,13.98
2018-05-15T11:23:11.232Z,11.73
2018-05-15T11:25:39.349Z,11.90
2018-05-15T11:28:07.573Z,12.10
2018-05-15T11:30:36.594Z,12.20
2018-05-15T11:33:05.298Z,10.98
2018-05-15T11:35:34.173Z,9.60
2018-05-15T11:38:02.259Z,8.23
2018-05-15T11:40:30.384Z,9.70
2018-05-15T11:42:59.249Z,8.80
2018-05-15T11:45:27.345Z,9.80
2018-05-15T11:47:56.852Z,8.73
2018-05-15T11:50:25.751Z,9.93
2018-05-15T11:52:53.865Z,7.18
2018-05-15T11:55:21.307Z,7.62
2018-05-15T11:57:49.498Z,7.50
2018-05-15T12:00:17.586Z,6.63
2018-05-15T12:02:45.748Z,6.87
2018-05-15T12:05:13.764Z,7.70
2018-05-15T12:07:42.718Z,7.13
2018-05-15T12:10:11.428Z,7.30
2018-05-15T12:12:40.769Z,10.17
2018-05-15T12:15:08.876Z,9.67
2018-05-15T12:17:37.744Z,10.30
2018-05-15T12:20:06.594Z,8.93
2018-05-15T12:22:41.324Z,9.65
2018-05-15T12:30:38.958Z,9.50
2018-05-15T12:33:07.078Z,7.35
2018-05-15T12:35:36.182Z,7.53
2018-05-15T12:38:05.343Z,8.48
2018-05-15T12:40:33.444Z,7.95
2018-05-15T12:43:01.630Z,8.52
2018-05-15T12:45:30.709Z,7.32
2018-05-15T12:47:59.269Z,7.15
2018-05-15T12:50:38.625Z,5.82
2018-05-15T12:53:06.712Z,6.80
2018-05-15T12:55:58.567Z,6.35
2018-05-15T12:58:26.766Z,7.07
2018-05-15T13:00:55.056Z,6.20
2018-05-15T13:03:26.303Z,7.20
2018-05-15T13:05:54.399Z,7.68
2018-05-15T13:08:35.496Z,7.80
2018-05-15T13:11:12.292Z,10.07
2018-05-15T13:13:41.118Z,8.18
2018-05-15T13:16:09.619Z,8.00
2018-05-15T13:18:38.172Z,7.83
2018-05-15T13:21:06.992Z,8.20
2018-05-15T13:23:35.695Z,8.10
2018-05-15T13:26:05.288Z,8.43
2018-05-15T13:28:35.387Z,7.50
2018-05-15T13:34:11.972Z,7.00
2018-05-15T13:36:39.971Z,7.37
2018-05-15T13:39:10.089Z,6.60
2018-05-15T13:41:38.720Z,5.37
2018-05-15T13:44:10.558Z,6.17
2018-05-15T13:46:38.695Z,5.50
2018-05-15T13:49:08.914Z,5.40
2018-05-15T13:51:37.002Z,4.80
2018-05-15T13:54:05.127Z,5.43
2018-05-15T13:56:33.205Z,7.43
2018-05-15T13:59:04.789Z,7.80
2018-05-15T14:01:34.906Z,8.00
2018-05-15T14:04:02.999Z,7.70
2018-05-15T14:06:31.329Z,5.37
2018-05-15T14:09:05.774Z,5.97
2018-05-15T14:11:33.874Z,6.00
2018-05-15T14:14:06.518Z,6.07
2018-05-15T14:16:34.603Z,6.30
2018-05-15T14:19:02.709Z,4.67
2018-05-15T14:21:30.815Z,5.27
2018-05-15T14:23:58.979Z,5.40
2018-05-15T14:26:27.058Z,4.80
2018-05-15T14:28:55.136Z,5.07
2018-05-15T14:31:25.485Z,5.20
2018-05-15T14:33:53.508Z,4.07
2018-05-15T14:36:21.606Z,4.20
2018-05-15T14:38:50.795Z,4.30
2018-05-15T14:41:19.717Z,4.10
2018-05-15T14:43:48.983Z,3.70
2018-05-15T14:46:17.340Z,3.50
2018-05-15T14:48:46.596Z,3.87
2018-05-15T14:51:31.123Z,3.20
2018-05-15T14:54:06.122Z,3.40
2018-05-15T14:56:34.253Z,3.43
2018-05-15T14:59:06.020Z,3.17
2018-05-15T15:01:34.097Z,3.70
2018-05-15T15:04:02.921Z,3.27
2018-05-15T15:06:31.763Z,3.40
2018-05-15T15:08:59.967Z,3.90
2018-05-15T15:11:28.034Z,3.00
2018-05-15T15:13:56.111Z,3.07
2018-05-15T15:16:24.212Z,3.47
2018-05-15T15:18:54.695Z,3.20
2018-05-15T15:21:22.772Z,3.97
2018-05-15T15:23:50.856Z,3.03
2018-05-15T15:26:18.933Z,2.87
2018-05-15T15:28:47.005Z,4.30
2018-05-15T15:31:15.091Z,3.00
2018-05-15T15:33:44.492Z,4.10
2018-05-15T15:36:13.373Z,3.67
2018-05-15T15:38:42.531Z,3.50
2018-05-15T15:41:10.622Z,3.73
2018-05-15T15:43:38.806Z,3.27
2018-05-15T15:46:07.589Z,4.23
2018-05-15T15:48:37.382Z,4.27
2018-05-15T15:51:05.466Z,3.87
2018-05-15T15:53:33.568Z,4.20
2018-05-15T15:56:02.432Z,4.13
2018-05-15T15:58:30.565Z,3.83
2018-05-15T16:00:58.677Z,3.93
2018-05-15T16:03:26.761Z,4.53
2018-05-15T16:05:54.844Z,4.57
2018-05-15T16:08:24.930Z,4.20
2018-05-15T16:10:53.051Z,4.07
2018-05-15T16:13:21.151Z,4.10
2018-05-15T16:15:49.625Z,3.80
2018-05-15T16:18:17.799Z,4.60
2018-05-15T16:20:45.882Z,4.30
2018-05-15T16:23:14.403Z,4.63
2018-05-15T16:25:42.499Z,4.27
2018-05-15T16:28:10.727Z,4.93
2018-05-15T16:30:38.811Z,4.90
2018-05-15T16:33:06.914Z,5.90
2018-05-15T16:35:37.077Z,5.47
2018-05-15T16:38:05.292Z,4.78
2018-05-15T16:40:34.339Z,5.30
2018-05-15T16:43:03.227Z,5.70
2018-05-15T16:45:32.328Z,5.80
2018-05-15T16:48:01.741Z,6.37
2018-05-15T16:50:30.303Z,5.40
2018-05-15T16:52:58.383Z,6.20
2018-05-15T16:55:26.480Z,5.10
2018-05-15T16:57:55.563Z,5.70
2018-05-15T17:00:24.779Z,6.55
2018-05-15T17:02:52.951Z,7.22
2018-05-15T17:05:21.818Z,7.25
2018-05-15T17:07:49.936Z,6.87
2018-05-15T17:10:18.470Z,6.47
2018-05-15T17:12:47.340Z,6.65
2018-05-15T17:15:15.438Z,7.50
2018-05-15T17:17:43.647Z,7.28
2018-05-15T17:20:11.743Z,7.30
2018-05-15T17:22:40.199Z,7.20
2018-05-15T17:25:10.740Z,7.95
2018-05-15T17:27:38.827Z,7.40
2018-05-15T17:30:07.704Z,8.05
2018-05-15T17:32:35.820Z,8.55
2018-05-15T17:35:04.529Z,8.10
2018-05-15T17:37:32.761Z,9.93
2018-05-15T17:40:01.712Z,7.53
2018-05-15T17:42:29.787Z,7.97
2018-05-15T17:44:57.867Z,7.20
2018-05-15T17:47:27.389Z,7.47
2018-05-15T17:49:55.402Z,8.57
2018-05-15T17:52:23.496Z,7.72
2018-05-15T17:54:51.971Z,7.47
2018-05-15T17:57:20.152Z,8.57
2018-05-15T17:59:49.095Z,7.40
2018-05-15T18:02:18.850Z,8.13
2018-05-15T18:04:46.852Z,7.28
2018-05-15T18:07:16.025Z,8.15
2018-05-15T18:12:20.594Z,7.80
2018-05-15T18:14:48.711Z,7.10
2018-05-15T18:17:18.054Z,8.23
2018-05-15T18:19:46.155Z,7.68
2018-05-15T18:22:14.255Z,8.38
2018-05-15T18:24:42.354Z,8.60
2018-05-15T18:27:10.498Z,7.80
2018-05-15T18:29:39.534Z,8.20
2018-05-15T18:32:07.640Z,8.07
2018-05-15T18:34:36.501Z,7.18
2018-05-15T18:37:04.595Z,7.20
2018-05-15T18:39:34.280Z,8.07
2018-05-15T18:42:03.246Z,7.40
2018-05-15T18:44:31.344Z,8.10
2018-05-15T18:46:59.428Z,7.65
2018-05-15T18:49:27.549Z,8.85
2018-05-15T18:51:57.123Z,9.18
2018-05-15T18:54:25.983Z,8.60
2018-05-15T18:56:54.078Z,8.00
2018-05-15T18:59:22.205Z,7.97
2018-05-15T19:01:50.285Z,7.93
2018-05-15T19:04:18.522Z,8.10
2018-05-15T19:06:47.460Z,7.80
2018-05-15T19:09:16.931Z,7.72
2018-05-15T19:11:45.657Z,8.50
2018-05-15T19:14:13.796Z,8.25
2018-05-15T19:16:41.885Z,8.68
2018-05-15T19:19:10.069Z,8.38
2018-05-15T19:21:38.914Z,9.52
2018-05-15T19:24:08.788Z,9.45
2018-05-15T19:26:36.872Z,9.10
2018-05-15T19:29:05.836Z,9.60
2018-05-15T19:31:37.304Z,10.10
2018-05-15T19:34:11.727Z,9.55
2018-05-15T19:36:46.843Z,9.90
2018-05-15T19:39:19.713Z,10.10
2018-05-15T19:41:49.275Z,9.63
2018-05-15T19:44:23.143Z,9.98
2018-05-15T19:46:58.689Z,11.10
2018-05-15T19:49:26.888Z,10.80
2018-05-15T19:51:55.754Z,9.38
2018-05-15T19:54:24.627Z,11.45
2018-05-15T19:56:53.922Z,9.70
2018-05-15T19:59:22.020Z,9.35
2018-05-15T20:01:50.147Z,10.55
2018-05-15T20:04:18.228Z,10.82
2018-05-15T20:06:46.316Z,10.55
2018-05-15T20:09:14.494Z,10.35
2018-05-15T20:11:42.579Z,10.00
2018-05-15T20:14:10.680Z,10.13
2018-05-15T20:16:38.774Z,10.90
2018-05-15T20:19:07.024Z,10.60
2018-05-15T20:21:35.261Z,10.48
2018-05-15T20:24:04.166Z,11.52
2018-05-15T20:26:32.315Z,11.52
2018-05-15T20:29:01.012Z,11.70
2018-05-15T20:31:29.029Z,11.82
2018-05-15T20:33:57.164Z,10.40
2018-05-15T20:36:26.189Z,11.43
2018-05-15T20:38:54.257Z,11.07
2018-05-15T20:41:22.390Z,10.25
2018-05-15T20:43:50.473Z,11.35
2018-05-15T20:46:18.594Z,11.30
2018-05-15T20:48:47.770Z,10.65
2018-05-15T20:51:15.879Z,11.45
2018-05-15T20:53:44.756Z,11.68
2018-05-15T20:56:12.841Z,10.45
2018-05-15T20:58:41.094Z,9.90
2018-05-15T21:01:09.193Z,10.77
2018-05-15T21:03:38.061Z,11.02
2018-05-15T21:06:06.158Z,10.93
2018-05-15T21:08:34.361Z,10.90
2018-05-15T21:11:02.461Z,10.52
2018-05-15T21:13:31.317Z,10.68
2018-05-15T21:16:00.153Z,12.20
2018-05-15T21:18:29.654Z,12.88
2018-05-15T21:20:59.007Z,11.45
2018-05-15T21:23:28.364Z,12.02
2018-05-15T21:25:58.846Z,13.05
2018-05-15T21:28:27.165Z,13.30
2018-05-15T21:30:59.345Z,12.40
2018-05-15T21:33:27.589Z,12.05
2018-05-15T21:35:55.697Z,12.77
2018-05-15T21:38:24.178Z,13.85
2018-05-15T21:40:52.262Z,13.18
2018-05-15T21:43:21.159Z,12.10
2018-05-15T21:45:49.259Z,13.35
2018-05-15T21:48:19.089Z,13.18
2018-05-15T21:50:48.455Z,12.43
2018-05-15T21:53:19.597Z,14.23
2018-05-15T21:55:48.094Z,13.98
2018-05-15T21:58:18.228Z,15.13
2018-05-15T22:00:46.341Z,12.25
2018-05-15T22:03:15.093Z,13.90
2018-05-15T22:05:43.172Z,13.25
2018-05-15T22:08:14.103Z,12.80
2018-05-15T22:10:42.203Z,14.30
2018-05-15T22:13:22.172Z,13.45
2018-05-15T22:16:02.122Z,14.20
2018-05-15T22:18:42.495Z,13.75
2018-05-15T22:21:22.432Z,14.63
2018-05-15T22:23:50.215Z,15.27
2018-05-15T22:26:18.297Z,13.35
2018-05-15T22:28:46.579Z,14.93
2018-05-15T22:31:14.739Z,13.55
2018-05-15T22:33:43.057Z,12.88
2018-05-15T22:36:11.214Z,14.10
2018-05-15T22:38:44.932Z,13.32
2018-05-15T22:41:13.020Z,13.25
2018-05-15T22:43:41.135Z,13.93
2018-05-15T22:46:09.540Z,12.43
2018-05-15T22:48:39.925Z,14.25
2018-05-15T22:51:08.798Z,13.93
2018-05-15T22:53:37.282Z,12.80
2018-05-15T22:56:06.976Z,13.02
2018-05-15T22:58:40.647Z,12.43
2018-05-15T23:01:08.832Z,13.80
2018-05-15T23:03:36.992Z,14.50
2018-05-15T23:06:05.126Z,12.52
2018-05-15T23:08:33.989Z,13.35
2018-05-15T23:11:02.088Z,14.27
2018-05-15T23:13:30.171Z,13.02
2018-05-15T23:15:58.277Z,12.70
2018-05-15T23:18:26.478Z,12.57
2018-05-15T23:20:54.663Z,13.15
2018-05-15T23:23:22.694Z,12.10
2018-05-15T23:25:50.781Z,11.30
2018-05-15T23:28:22.246Z,13.30
2018-05-15T23:30:50.329Z,15.05
2018-05-15T23:33:18.407Z,14.48
2018-05-15T23:35:46.496Z,11.60
2018-05-15T23:38:14.709Z,13.13
2018-05-15T23:40:42.800Z,13.68
2018-05-15T23:43:10.885Z,13.75
2018-05-15T23:45:38.987Z,13.62
2018-05-15T23:48:07.472Z,15.05
2018-05-15T23:50:36.332Z,13.05
2018-05-15T23:53:04.422Z,12.68
2018-05-15T23:55:32.519Z,13.65
2018-05-15T23:58:00.725Z,13.98
